createdAt,value
2023-01-05T00:01:42.732Z,100015.13
2023-01-05T00:04:12.810Z,100015.13
2023-01-05T00:06:40.886Z,100036.03
2023-01-05T00:09:09.975Z,100027.09
2023-01-05T00:11:55.145Z,100014.13
2023-01-05T00:14:43.774Z,100018.09
2023-01-05T00:17:30.411Z,100021.03
2023-01-05T00:20:15.674Z,100007.94
2023-01-05T00:22:47.643Z,99987.25
2023-01-05T00:25:17.958Z,99985.94
2023-01-05T00:27:48.051Z,100001.19
2023-01-05T00:30:20.039Z,99975.63
2023-01-05T00:32:48.476Z,99982.91
2023-01-05T00:35:17.244Z,99974.28
2023-01-05T00:37:45.264Z,99980.56
2023-01-05T00:40:15.161Z,99984.88
2023-01-05T00:42:43.119Z,99969.13
2023-01-05T00:45:13.620Z,99967.31
2023-01-05T00:47:43.066Z,99979.75
2023-01-05T00:50:13.829Z,99962.31
2023-01-05T00:52:41.959Z,99960.69
2023-01-05T00:55:09.989Z,99970.78
2023-01-05T00:57:37.708Z,99964.28
2023-01-05T01:00:06.734Z,99965.63
2023-01-05T01:02:34.467Z,99960.25
2023-01-05T01:05:03.572Z,99962.91
2023-01-05T01:07:31.268Z,99964.84
2023-01-05T01:09:58.873Z,99949.59
2023-01-05T01:12:26.488Z,99952.53
2023-01-05T01:14:54.110Z,99954.03
2023-01-05T01:17:21.836Z,99950.84
2023-01-05T01:19:49.562Z,99963.94
2023-01-05T01:22:18.564Z,99955.44
2023-01-05T01:24:46.160Z,99961.75
2023-01-05T01:27:13.891Z,99970.34
2023-01-05T01:29:41.600Z,99985.78
2023-01-05T01:32:09.215Z,99984.91
2023-01-05T01:34:37.031Z,99990.22
2023-01-05T01:37:04.670Z,99984.25
2023-01-05T01:39:33.832Z,99979.31
2023-01-05T01:42:01.379Z,99994.25
2023-01-05T01:44:53.642Z,99967.25
2023-01-05T01:47:33.896Z,99985.59
2023-01-05T01:50:05.131Z,100002.72
2023-01-05T01:52:33.898Z,100008.50
2023-01-05T01:55:05.285Z,100004.25
2023-01-05T01:57:34.677Z,100005.25
2023-01-05T02:00:03.887Z,99999.63
2023-01-05T02:02:31.543Z,99990.19
2023-01-05T02:05:04.341Z,100003.50
2023-01-05T02:07:35.191Z,100011.31
2023-01-05T02:10:06.462Z,100005.63
2023-01-05T02:12:41.986Z,100012.59
2023-01-05T02:15:22.792Z,100017.78
2023-01-05T02:18:05.377Z,100002.69
2023-01-05T02:20:49.150Z,100012.16
2023-01-05T02:23:45.211Z,100012.16
2023-01-05T02:26:28.077Z,100010.56
2023-01-05T02:29:19.919Z,100000.13
2023-01-05T02:31:52.325Z,100000.28
2023-01-05T02:34:24.221Z,99997.09
2023-01-05T02:36:57.903Z,99997.09
2023-01-05T02:39:32.236Z,100001.44
2023-01-05T02:42:04.074Z,100000.47
2023-01-05T02:44:34.639Z,99998.97
2023-01-05T02:47:05.864Z,99984.88
2023-01-05T02:49:41.675Z,99998.50
2023-01-05T02:52:11.974Z,99993.50
2023-01-05T02:54:44.797Z,99991.69
2023-01-05T02:57:17.873Z,99991.50
2023-01-05T02:59:48.693Z,100002.09
2023-01-05T03:02:22.223Z,99998.81
2023-01-05T03:04:55.649Z,100022.84
2023-01-05T03:07:27.113Z,100018.69
2023-01-05T03:09:54.883Z,100012.75
2023-01-05T03:12:42.709Z,100012.78
2023-01-05T03:15:18.678Z,100016.47
2023-01-05T03:17:50.989Z,100017.94
2023-01-05T03:20:23.661Z,100038.16
2023-01-05T03:23:11.184Z,100019.13
2023-01-05T03:25:57.499Z,100019.59
2023-01-05T03:28:49.079Z,100013.47
2023-01-05T03:31:41.830Z,100024.06
2023-01-05T03:34:35.352Z,100005.19
2023-01-05T03:37:08.826Z,100016.13
2023-01-05T03:39:39.377Z,100024.59
2023-01-05T03:42:09.559Z,100028.09
2023-01-05T03:44:38.496Z,100025.44
2023-01-05T03:47:08.732Z,100045.66
2023-01-05T03:49:38.483Z,100039.69
2023-01-05T03:52:06.381Z,100048.00
2023-01-05T03:54:34.002Z,100045.34
2023-01-05T03:57:01.654Z,100055.63
2023-01-05T03:59:29.308Z,100053.66
2023-01-05T04:01:57.036Z,100061.75
2023-01-05T04:04:24.804Z,100060.44
2023-01-05T04:06:53.761Z,100058.97
2023-01-05T04:09:21.355Z,100057.63
2023-01-05T04:11:48.987Z,100063.41
2023-01-05T04:14:16.643Z,100058.28
2023-01-05T04:16:44.288Z,100067.91
2023-01-05T04:19:11.990Z,100069.88
2023-01-05T04:21:39.574Z,100076.66
2023-01-05T04:24:11.058Z,100084.44
2023-01-05T04:26:39.278Z,100082.09
2023-01-05T04:29:07.139Z,100090.72
2023-01-05T04:31:34.752Z,100095.00
2023-01-05T04:34:02.547Z,100101.47
2023-01-05T04:36:30.166Z,100102.94
2023-01-05T04:38:57.739Z,100110.84
2023-01-05T04:41:26.703Z,100116.69
2023-01-05T04:43:54.306Z,100114.84
2023-01-05T04:46:21.998Z,100121.28
2023-01-05T04:48:49.716Z,100118.97
2023-01-05T04:51:17.317Z,100124.44
2023-01-05T04:53:44.878Z,100127.22
2023-01-05T04:56:12.513Z,100117.47
2023-01-05T04:58:41.444Z,100125.75
2023-01-05T05:01:09.156Z,100130.88
2023-01-05T05:03:36.882Z,100141.31
2023-01-05T05:06:04.832Z,100137.84
2023-01-05T05:08:32.458Z,100151.28
2023-01-05T05:11:00.711Z,100156.88
2023-01-05T05:13:28.328Z,100161.53
2023-01-05T05:15:57.269Z,100168.50
2023-01-05T05:18:25.307Z,100153.63
2023-01-05T05:20:54.251Z,100166.31
2023-01-05T05:23:22.226Z,100170.97
2023-01-05T05:25:51.369Z,100175.44
2023-01-05T05:28:19.238Z,100172.81
2023-01-05T05:30:47.034Z,100189.03
2023-01-05T05:33:15.920Z,100185.03
2023-01-05T05:35:43.567Z,100188.69
2023-01-05T05:38:11.175Z,100190.31
2023-01-05T05:40:38.778Z,100190.31
2023-01-05T05:43:06.408Z,100194.63
2023-01-05T05:45:34.012Z,100200.47
2023-01-05T05:48:02.179Z,100210.03
2023-01-05T05:50:31.152Z,100208.16
2023-01-05T05:52:58.773Z,100212.38
2023-01-05T05:55:26.372Z,100208.88
2023-01-05T05:57:53.972Z,100215.66
2023-01-05T06:00:21.610Z,100213.94
2023-01-05T06:02:49.416Z,100220.03
2023-01-05T06:05:17.087Z,100217.22
2023-01-05T06:07:46.140Z,100230.81
2023-01-05T06:10:13.712Z,100234.44
2023-01-05T06:12:41.572Z,100241.47
2023-01-05T06:15:10.741Z,100249.13
2023-01-05T06:17:38.377Z,100242.66
2023-01-05T06:20:07.330Z,100252.44
2023-01-05T06:22:35.045Z,100252.81
2023-01-05T06:25:04.700Z,100250.03
2023-01-05T06:27:32.392Z,100241.09
2023-01-05T06:29:59.956Z,100251.97
2023-01-05T06:32:27.623Z,100249.63
2023-01-05T06:34:55.227Z,100250.66
2023-01-05T06:37:22.912Z,100254.69
2023-01-05T06:39:50.626Z,100260.13
2023-01-05T06:42:23.374Z,100257.94
2023-01-05T06:44:51.376Z,100256.25
2023-01-05T06:47:19.479Z,100255.22
2023-01-05T06:49:47.146Z,100249.94
2023-01-05T06:52:16.819Z,100250.63
2023-01-05T06:54:44.926Z,100253.34
2023-01-05T06:57:12.527Z,100254.03
2023-01-05T06:59:41.484Z,100249.09
2023-01-05T07:04:56.172Z,100237.88
2023-01-05T07:07:23.949Z,100245.69
2023-01-05T07:09:51.580Z,100241.16
2023-01-05T07:12:19.394Z,100244.00
2023-01-05T07:14:52.891Z,100244.38
2023-01-05T07:17:23.376Z,100243.94
2023-01-05T07:19:51.005Z,100246.94
2023-01-05T07:22:18.647Z,100252.22
2023-01-05T07:24:46.255Z,100243.31
2023-01-05T07:27:13.859Z,100247.13
2023-01-05T07:29:41.487Z,100250.78
2023-01-05T07:32:10.681Z,100253.25
2023-01-05T07:34:38.221Z,100249.84
2023-01-05T07:37:05.873Z,100255.13
2023-01-05T07:39:33.486Z,100262.09
2023-01-05T07:42:01.199Z,100263.75
2023-01-05T07:44:28.804Z,100258.47
2023-01-05T07:46:56.342Z,100275.38
2023-01-05T07:49:25.505Z,100263.00
2023-01-05T07:51:53.084Z,100275.59
2023-01-05T07:54:21.473Z,100272.44
2023-01-05T07:56:49.121Z,100281.38
2023-01-05T07:59:16.877Z,100284.28
2023-01-05T08:01:44.488Z,100293.00
2023-01-05T08:04:12.317Z,100293.16
2023-01-05T08:06:41.248Z,100300.41
2023-01-05T08:09:22.807Z,100302.63
2023-01-05T08:11:50.413Z,100304.09
2023-01-05T08:14:17.252Z,100317.53
2023-01-05T08:16:44.932Z,100315.44
2023-01-05T08:19:12.939Z,100320.41
2023-01-05T08:21:41.935Z,100326.03
2023-01-05T08:24:09.807Z,100323.19
2023-01-05T08:26:37.501Z,100330.00
2023-01-05T08:29:05.308Z,100325.75
2023-01-05T08:31:37.171Z,100331.25
2023-01-05T08:34:05.944Z,100325.41
2023-01-05T08:36:33.873Z,100329.78
2023-01-05T08:39:03.207Z,100337.03
2023-01-05T08:41:33.234Z,100347.41
2023-01-05T08:44:03.484Z,100341.09
2023-01-05T08:46:34.124Z,100343.75
2023-01-05T08:49:03.648Z,100349.09
2023-01-05T08:51:31.983Z,100344.84
2023-01-05T08:54:00.135Z,100356.28
2023-01-05T08:56:34.634Z,100357.75
2023-01-05T08:59:05.888Z,100355.16
2023-01-05T09:01:33.742Z,100355.47
2023-01-05T09:04:01.424Z,100355.31
2023-01-05T09:06:29.258Z,100366.59
2023-01-05T09:08:57.220Z,100362.75
2023-01-05T09:11:26.219Z,100364.75
2023-01-05T09:13:57.026Z,100371.88
2023-01-05T09:17:05.724Z,100355.94
2023-01-05T09:19:15.993Z,100357.13
2023-01-05T09:21:44.486Z,100359.31
2023-01-05T09:24:13.305Z,100366.28
2023-01-05T09:26:41.459Z,100363.09
2023-01-05T09:29:11.509Z,100370.41
2023-01-05T09:31:40.903Z,100375.53
2023-01-05T09:34:08.668Z,100381.66
2023-01-05T09:36:38.676Z,100378.31
2023-01-05T09:39:07.157Z,100383.47
2023-01-05T09:41:38.045Z,100387.97
2023-01-05T09:44:08.971Z,100389.16
2023-01-05T09:46:42.284Z,100393.97
2023-01-05T09:49:15.208Z,100386.72
2023-01-05T09:51:43.968Z,100379.06
2023-01-05T09:54:16.711Z,100393.69
2023-01-05T09:59:37.130Z,100394.06
2023-01-05T10:02:17.338Z,100399.84
2023-01-05T10:04:45.384Z,100397.34
2023-01-05T10:07:21.662Z,100397.25
2023-01-05T10:09:49.729Z,100404.66
2023-01-05T10:12:41.301Z,100398.88
2023-01-05T10:15:13.868Z,100390.69
2023-01-05T10:17:44.858Z,100399.31
2023-01-05T10:20:24.125Z,100399.66
2023-01-05T10:23:04.363Z,100394.75
2023-01-05T10:25:39.775Z,100390.44
2023-01-05T10:28:24.483Z,100407.09
2023-01-05T10:30:58.811Z,100391.78
2023-01-05T10:33:52.020Z,100407.22
2023-01-05T10:39:30.679Z,100405.03
2023-01-05T10:42:04.307Z,100404.66
2023-01-05T10:44:56.574Z,100414.50
2023-01-05T10:47:26.612Z,100408.03
2023-01-05T10:49:55.700Z,100413.75
2023-01-05T10:52:23.881Z,100406.78
2023-01-05T10:54:57.194Z,100415.00
2023-01-05T10:57:41.038Z,100403.19
2023-01-05T11:00:13.666Z,100404.38
2023-01-05T11:02:44.072Z,100405.09
2023-01-05T11:05:28.395Z,100396.53
2023-01-05T11:07:58.470Z,100398.19
2023-01-05T11:10:30.251Z,100401.00
2023-01-05T11:13:04.534Z,100393.22
2023-01-05T11:15:34.659Z,100394.22
2023-01-05T11:18:03.823Z,100391.88
2023-01-05T11:20:32.774Z,100388.56
2023-01-05T11:23:00.373Z,100395.22
2023-01-05T11:25:29.890Z,100398.00
2023-01-05T11:28:12.237Z,100399.16
2023-01-05T11:30:48.268Z,100394.53
2023-01-05T11:33:25.699Z,100396.69
2023-01-05T11:35:56.007Z,100399.66
2023-01-05T11:38:26.312Z,100400.66
2023-01-05T11:40:56.106Z,100406.13
2023-01-05T11:43:25.590Z,100405.78
2023-01-05T11:45:56.760Z,100392.88
2023-01-05T11:48:27.447Z,100394.88
2023-01-05T11:50:57.794Z,100398.88
2023-01-05T11:53:36.405Z,100408.81
2023-01-05T11:56:06.229Z,100393.19
2023-01-05T11:58:35.342Z,100403.50
2023-01-05T12:01:23.289Z,100391.03
2023-01-05T12:04:36.550Z,100401.03
2023-01-05T12:07:14.987Z,100401.00
2023-01-05T12:09:49.715Z,100395.53
2023-01-05T12:12:41.519Z,100405.16
2023-01-05T12:15:35.605Z,100396.47
2023-01-05T12:18:16.470Z,100395.72
2023-01-05T12:20:57.531Z,100394.06
2023-01-05T12:23:41.244Z,100396.25
2023-01-05T12:26:19.982Z,100409.50
2023-01-05T12:35:32.021Z,100410.59
2023-01-05T12:38:15.107Z,100408.28
2023-01-05T12:41:00.324Z,100418.56
2023-01-05T12:43:46.493Z,100409.75
2023-01-05T12:46:25.465Z,100413.94
2023-01-05T12:48:57.047Z,100410.75
2023-01-05T12:51:32.524Z,100412.09
2023-01-05T12:54:06.481Z,100405.00
2023-01-05T12:56:42.320Z,100410.78
2023-01-05T12:59:18.219Z,100412.78
2023-01-05T13:01:51.048Z,100413.97
2023-01-05T13:04:41.502Z,100411.78
2023-01-05T13:07:21.071Z,100411.28
2023-01-05T13:09:56.131Z,100406.47
2023-01-05T13:12:28.645Z,100417.44
2023-01-05T13:15:07.453Z,100405.81
2023-01-05T13:17:37.676Z,100401.00
2023-01-05T13:20:17.507Z,100404.34
2023-01-05T13:22:47.324Z,100409.16
2023-01-05T13:25:19.189Z,100401.16
2023-01-05T13:27:48.250Z,100406.16
2023-01-05T13:30:23.424Z,100406.34
2023-01-05T13:33:13.341Z,100406.66
2023-01-05T13:35:50.928Z,100406.81
2023-01-05T13:38:41.285Z,100421.09
2023-01-05T13:41:26.328Z,100411.47
2023-01-05T13:44:32.000Z,100420.75
2023-01-05T13:47:45.307Z,100430.53
2023-01-05T13:50:31.551Z,100412.97
2023-01-05T13:53:15.331Z,100404.81
2023-01-05T13:55:49.535Z,100417.91
2023-01-05T14:01:11.483Z,100420.41
2023-01-05T14:03:41.490Z,100420.69
2023-01-05T14:06:19.348Z,100406.28
2023-01-05T14:08:55.527Z,100417.16
2023-01-05T14:11:24.784Z,100422.31
2023-01-05T14:13:55.315Z,100420.75
2023-01-05T14:16:52.795Z,100424.03
2023-01-05T14:19:23.552Z,100428.63
2023-01-05T14:22:36.925Z,100429.75
2023-01-05T14:25:43.305Z,100430.13
2023-01-05T14:28:40.935Z,100433.22
2023-01-05T14:31:43.782Z,100423.97
2023-01-05T14:34:18.196Z,100420.41
2023-01-05T14:36:49.423Z,100430.53
2023-01-05T14:39:26.603Z,100420.59
2023-01-05T14:42:01.707Z,100431.41
2023-01-05T14:44:34.596Z,100427.47
2023-01-05T14:47:03.215Z,100436.31
2023-01-05T14:49:36.621Z,100438.28
2023-01-05T14:52:06.716Z,100446.75
2023-01-05T14:55:21.803Z,100449.41
2023-01-05T14:57:55.523Z,100452.34
2023-01-05T15:00:38.619Z,100448.03
2023-01-05T15:03:14.925Z,100452.22
2023-01-05T15:05:53.143Z,100452.53
2023-01-05T15:08:37.301Z,100453.84
2023-01-05T15:11:36.932Z,100449.75
2023-01-05T15:14:36.085Z,100449.88
2023-01-05T15:17:27.494Z,100452.41
2023-01-05T15:20:09.411Z,100447.41
2023-01-05T15:22:56.556Z,100447.72
2023-01-05T15:25:43.438Z,100444.41
2023-01-05T15:28:48.995Z,100443.03
2023-01-05T15:31:29.998Z,100444.00
2023-01-05T15:34:07.440Z,100442.69
2023-01-05T15:36:39.803Z,100446.97
2023-01-05T15:39:25.165Z,100442.81
2023-01-05T15:41:54.785Z,100452.25
2023-01-05T15:44:23.337Z,100446.47
2023-01-05T15:46:51.892Z,100449.25
2023-01-05T15:49:24.226Z,100446.13
2023-01-05T15:51:53.795Z,100433.50
2023-01-05T15:54:25.670Z,100428.53
2023-01-05T15:56:53.948Z,100426.19
2023-01-05T15:59:32.123Z,100431.00
2023-01-05T16:01:59.967Z,100436.78
2023-01-05T16:04:28.580Z,100434.28
2023-01-05T16:07:01.108Z,100427.66
2023-01-05T16:09:33.623Z,100438.75
2023-01-05T16:12:07.156Z,100442.88
2023-01-05T16:14:38.320Z,100439.75
2023-01-05T16:17:11.230Z,100436.41
2023-01-05T16:19:44.119Z,100432.91
2023-01-05T16:22:18.050Z,100434.38
2023-01-05T16:24:58.427Z,100438.91
2023-01-05T16:27:27.048Z,100438.41
2023-01-05T16:29:54.618Z,100438.69
2023-01-05T16:32:33.143Z,100427.59
2023-01-05T16:35:23.514Z,100437.22
2023-01-05T16:38:05.765Z,100443.50
2023-01-05T16:40:35.600Z,100442.31
2023-01-05T16:43:03.993Z,100436.84
2023-01-05T16:45:34.044Z,100435.19
2023-01-05T16:48:01.843Z,100417.09
2023-01-05T16:50:55.720Z,100426.88
2023-01-05T16:53:25.316Z,100422.41
2023-01-05T16:55:57.112Z,100421.56
2023-01-05T16:58:37.395Z,100419.41
2023-01-05T17:01:23.472Z,100428.50
2023-01-05T17:03:51.689Z,100426.66
2023-01-05T17:06:24.811Z,100424.13
2023-01-05T17:08:53.255Z,100430.31
2023-01-05T17:11:22.434Z,100425.84
2023-01-05T17:13:53.535Z,100425.69
2023-01-05T17:16:22.387Z,100424.69
2023-01-05T17:18:50.817Z,100428.69
2023-01-05T17:21:20.656Z,100431.72
2023-01-05T17:23:50.456Z,100416.94
2023-01-05T17:26:22.890Z,100421.53
2023-01-05T17:28:50.967Z,100419.03
2023-01-05T17:31:18.614Z,100430.69
2023-01-05T17:33:46.226Z,100431.97
2023-01-05T17:38:47.434Z,100438.28
2023-01-05T17:41:16.150Z,100433.00
2023-01-05T17:43:46.324Z,100431.81
2023-01-05T17:46:18.694Z,100426.72
2023-01-05T17:48:46.569Z,100424.00
2023-01-05T17:51:14.529Z,100421.38
2023-01-05T17:53:42.213Z,100427.00
2023-01-05T17:56:09.820Z,100427.47
2023-01-05T17:58:37.685Z,100420.97
2023-01-05T18:01:07.274Z,100433.53
2023-01-05T18:03:34.891Z,100434.16
2023-01-05T18:06:03.328Z,100422.25
2023-01-05T18:08:31.031Z,100436.28
2023-01-05T18:11:02.068Z,100436.97
2023-01-05T18:13:29.830Z,100426.22
2023-01-05T18:18:31.390Z,100419.19
2023-01-05T18:21:00.966Z,100427.81
2023-01-05T18:23:28.769Z,100430.34
2023-01-05T18:25:56.350Z,100422.38
2023-01-05T18:28:23.926Z,100419.41
2023-01-05T18:30:51.533Z,100417.22
2023-01-05T18:33:19.252Z,100421.19
2023-01-05T18:35:50.714Z,100426.16
2023-01-05T18:38:21.917Z,100430.41
2023-01-05T18:40:50.425Z,100418.34
2023-01-05T18:43:18.150Z,100425.13
2023-01-05T18:45:45.705Z,100428.44
2023-01-05T18:48:13.319Z,100426.34
2023-01-05T18:50:42.891Z,100423.34
2023-01-05T18:53:12.993Z,100425.31
2023-01-05T18:55:41.540Z,100422.50
2023-01-05T18:58:09.451Z,100426.13
2023-01-05T19:00:39.070Z,100418.19
2023-01-05T19:03:06.822Z,100425.13
2023-01-05T19:05:34.810Z,100429.56
2023-01-05T19:08:02.482Z,100422.75
2023-01-05T19:10:32.888Z,100428.38
2023-01-05T19:13:00.631Z,100425.41
2023-01-05T19:15:28.276Z,100420.56
2023-01-05T19:17:57.193Z,100416.72
2023-01-05T19:20:24.818Z,100418.84
2023-01-05T19:22:52.410Z,100411.88
2023-01-05T19:25:20.054Z,100420.13
2023-01-05T19:27:49.046Z,100412.28
2023-01-05T19:30:19.945Z,100414.38
2023-01-05T19:32:47.593Z,100417.56
2023-01-05T19:35:15.311Z,100406.78
2023-01-05T19:37:43.348Z,100418.22
2023-01-05T19:40:12.228Z,100409.28
2023-01-05T19:42:40.000Z,100413.47
2023-01-05T19:45:10.411Z,100419.28
2023-01-05T19:47:40.678Z,100400.88
2023-01-05T19:50:10.032Z,100407.00
2023-01-05T19:52:38.254Z,100405.75
2023-01-05T19:55:06.911Z,100406.09
2023-01-05T19:57:34.634Z,100400.66
2023-01-05T20:00:02.286Z,100407.16
2023-01-05T20:02:31.345Z,100406.31
2023-01-05T20:04:59.408Z,100397.91
2023-01-05T20:07:27.041Z,100401.91
2023-01-05T20:09:54.706Z,100404.53
2023-01-05T20:12:22.628Z,100398.34
2023-01-05T20:14:50.401Z,100405.59
2023-01-05T20:17:18.420Z,100399.94
2023-01-05T20:19:47.781Z,100402.44
2023-01-05T20:22:15.628Z,100393.66
2023-01-05T20:24:45.364Z,100394.31
2023-01-05T20:27:15.401Z,100402.09
2023-01-05T20:29:43.932Z,100399.03
2023-01-05T20:32:13.792Z,100396.19
2023-01-05T20:34:42.899Z,100388.56
2023-01-05T20:37:12.689Z,100397.50
2023-01-05T20:39:42.633Z,100386.56
2023-01-05T20:42:11.788Z,100394.84
2023-01-05T20:44:42.470Z,100395.81
2023-01-05T20:47:10.700Z,100390.88
2023-01-05T20:49:40.229Z,100391.06
2023-01-05T20:52:09.467Z,100395.75
2023-01-05T20:54:39.160Z,100394.44
2023-01-05T20:57:07.767Z,100391.63
2023-01-05T20:59:38.579Z,100393.94
2023-01-05T21:02:18.302Z,100398.13
2023-01-05T21:04:51.246Z,100396.66
2023-01-05T21:07:20.092Z,100396.59
2023-01-05T21:09:50.320Z,100398.94
2023-01-05T21:12:18.184Z,100398.47
2023-01-05T21:14:45.818Z,100399.16
2023-01-05T21:17:13.450Z,100390.72
2023-01-05T21:19:41.051Z,100394.72
2023-01-05T21:22:08.957Z,100396.88
2023-01-05T21:24:37.159Z,100393.91
2023-01-05T21:27:06.191Z,100396.72
2023-01-05T21:29:33.946Z,100394.28
2023-01-05T21:32:01.631Z,100400.91
2023-01-05T21:34:29.239Z,100400.75
2023-01-05T21:36:56.862Z,100397.47
2023-01-05T21:39:28.268Z,100399.97
2023-01-05T21:42:13.748Z,100401.63
2023-01-05T21:44:42.733Z,100398.66
2023-01-05T21:47:10.548Z,100394.16
2023-01-05T21:49:38.182Z,100387.06
2023-01-05T21:52:24.440Z,100385.75
2023-01-05T21:55:09.727Z,100383.25
2023-01-05T21:57:37.410Z,100389.69
2023-01-05T22:00:08.567Z,100387.00
2023-01-05T22:02:36.296Z,100374.31
2023-01-05T22:05:04.025Z,100371.97
2023-01-05T22:07:31.732Z,100372.66
2023-01-05T22:09:59.471Z,100367.16
2023-01-05T22:12:27.120Z,100369.44
2023-01-05T22:14:54.702Z,100368.06
2023-01-05T22:17:23.958Z,100372.53
2023-01-05T22:19:53.342Z,100371.50
2023-01-05T22:22:21.663Z,100370.72
2023-01-05T22:24:49.656Z,100372.38
2023-01-05T22:27:17.400Z,100370.34
2023-01-05T22:29:44.939Z,100370.94
2023-01-05T22:32:12.499Z,100366.66
2023-01-05T22:34:43.735Z,100367.69
2023-01-05T22:37:11.429Z,100356.56
2023-01-05T22:39:39.132Z,100362.75
2023-01-05T22:42:07.012Z,100360.09
2023-01-05T22:44:34.785Z,100366.72
2023-01-05T22:47:02.416Z,100366.09
2023-01-05T22:49:30.560Z,100364.91
2023-01-05T22:51:59.503Z,100363.09
2023-01-05T22:54:27.046Z,100366.28
2023-01-05T22:56:55.038Z,100361.13
2023-01-05T22:59:22.657Z,100369.47
2023-01-05T23:01:50.198Z,100366.81
2023-01-05T23:04:19.234Z,100356.75
2023-01-05T23:06:46.810Z,100352.09
2023-01-05T23:09:16.975Z,100364.00
2023-01-05T23:11:46.811Z,100354.84
2023-01-05T23:14:17.344Z,100358.38
2023-01-05T23:16:45.127Z,100353.38
2023-01-05T23:19:13.371Z,100352.22
2023-01-05T23:21:41.019Z,100351.22
2023-01-05T23:24:09.675Z,100349.25
2023-01-05T23:26:38.996Z,100342.22
2023-01-05T23:29:06.672Z,100341.88
2023-01-05T23:31:34.232Z,100335.91
2023-01-05T23:34:01.788Z,100336.09
2023-01-05T23:36:29.375Z,100333.31
2023-01-05T23:38:57.252Z,100329.66
2023-01-05T23:41:24.844Z,100331.66
2023-01-05T23:43:53.947Z,100325.69
2023-01-05T23:46:23.561Z,100323.06
2023-01-05T23:48:52.364Z,100318.94
2023-01-05T23:51:20.470Z,100324.53
2023-01-05T23:53:49.929Z,100318.94
2023-01-05T23:56:20.059Z,100318.06
2023-01-05T23:58:47.869Z,100311.75
